Time;durP1;ratioP1;P1;durP2;ratioP2;P2;SDS_P1;SDS_P2;PMS_P1;PMS_P2;Temp;Humidity;BMP_temperature;BMP_pressure;BME280_temperature;BME280_humidity;BME280_pressure;Samples;Min_cycle;Max_cycle;Signal;HPM_P1;HPM_P2
2023/01/28 00:01:05;;;;;;;6.67;3.87;;;;;;;0.27;82.09;99245.50;4889489;29;20775;-54
2023/01/28 00:03:34;;;;;;;5.17;3.83;;;;;;;0.17;82.79;99249.38;4889706;29;20246;-55
2023/01/28 00:06:04;;;;;;;5.60;3.60;;;;;;;0.17;83.04;99239.97;4887451;29;20326;-54
2023/01/28 00:08:32;;;;;;;5.30;3.33;;;;;;;0.12;81.61;99245.28;4889491;29;20231;-55
2023/01/28 00:11:00;;;;;;;5.60;3.87;;;;;;;0.10;82.32;99236.81;4887782;29;20329;-56
2023/01/28 00:13:27;;;;;;;6.60;3.57;;;;;;;0.00;82.98;99243.28;4888026;29;20245;-54
2023/01/28 00:15:58;;;;;;;5.22;4.10;;;;;;;-0.04;83.93;99240.00;4887301;29;20461;-54
2023/01/28 00:18:25;;;;;;;5.63;3.73;;;;;;;-0.14;84.33;99233.63;4888962;29;20913;-53
2023/01/28 00:21:00;;;;;;;5.13;3.33;;;;;;;-0.22;84.87;99238.25;4889861;29;20239;-55
2023/01/28 00:23:28;;;;;;;6.77;3.43;;;;;;;-0.30;84.56;99231.72;4889291;29;20755;-53
2023/01/28 00:25:54;;;;;;;5.87;3.90;;;;;;;-0.41;85.41;99230.53;4887313;29;20450;-55
2023/01/28 00:28:21;;;;;;;6.13;3.70;;;;;;;-0.62;86.33;99231.41;4888056;29;20243;-54
2023/01/28 00:30:48;;;;;;;7.90;3.50;;;;;;;-0.62;86.97;99236.53;4890184;29;20235;-56
2023/01/28 00:33:14;;;;;;;5.10;3.40;;;;;;;-0.70;87.00;99230.03;4891482;29;20242;-55
2023/01/28 00:35:41;;;;;;;5.37;3.33;;;;;;;-0.67;86.52;99229.91;4902764;29;20250;-56
2023/01/28 00:38:09;;;;;;;4.77;3.30;;;;;;;-0.84;87.72;99239.13;4909076;29;20229;-54
2023/01/28 00:40:36;;;;;;;5.47;3.13;;;;;;;-0.95;89.08;99237.03;4891316;29;20249;-55
2023/01/28 00:43:02;;;;;;;5.90;3.80;;;;;;;-0.99;89.87;99227.78;4887176;29;20237;-55
2023/01/28 00:45:29;;;;;;;5.97;3.70;;;;;;;-1.10;90.00;99229.94;4889208;29;20230;-56
2023/01/28 00:47:56;;;;;;;6.70;3.67;;;;;;;-1.18;90.52;99232.84;4892100;29;20780;-53
2023/01/28 00:50:22;;;;;;;5.37;3.33;;;;;;;-1.22;91.78;99229.53;4889585;29;20242;-56
2023/01/28 00:52:49;;;;;;;5.83;3.63;;;;;;;-1.26;92.06;99243.38;4892521;29;20261;-56
2023/01/28 00:55:17;;;;;;;5.97;4.27;;;;;;;-1.37;91.78;99232.72;4891996;29;20258;-53
2023/01/28 00:57:43;;;;;;;6.10;4.17;;;;;;;-1.34;92.65;99245.41;4889574;29;20922;-55
2023/01/28 01:00:11;;;;;;;6.47;3.80;;;;;;;-1.19;91.91;99238.84;4893179;29;20232;-55
2023/01/28 01:02:38;;;;;;;6.03;4.03;;;;;;;-1.10;90.96;99246.16;4890218;29;20257;-56
2023/01/28 01:05:06;;;;;;;5.67;3.60;;;;;;;-0.92;90.28;99241.16;4885538;29;20225;-56
2023/01/28 01:07:33;;;;;;;6.80;3.80;;;;;;;-0.86;89.61;99248.63;4892834;29;20244;-55
2023/01/28 01:10:00;;;;;;;6.10;3.90;;;;;;;-0.84;89.57;99241.69;4887396;29;20318;-53
2023/01/28 01:12:29;;;;;;;6.27;3.83;;;;;;;-0.83;90.10;99243.34;4888897;29;20252;-56
2023/01/28 01:14:55;;;;;;;4.77;3.30;;;;;;;-0.73;89.60;99248.09;4887748;29;20973;-56
2023/01/28 01:17:23;;;;;;;8.07;3.93;;;;;;;-0.62;89.63;99251.06;4890125;29;20253;-55
2023/01/28 01:19:49;;;;;;;6.77;3.60;;;;;;;-0.57;89.73;99250.88;4891265;29;20834;-56
2023/01/28 01:22:16;;;;;;;6.70;3.83;;;;;;;-0.45;89.05;99251.19;4909312;29;20319;-54
2023/01/28 01:24:43;;;;;;;6.43;3.90;;;;;;;-0.38;88.07;99251.75;4895886;29;20238;-53
2023/01/28 01:27:09;;;;;;;5.70;3.60;;;;;;;-0.33;87.32;99244.69;4888997;29;20233;-53
2023/01/28 01:29:38;;;;;;;5.80;3.80;;;;;;;-0.27;86.51;99256.44;4910970;29;20243;-55
2023/01/28 01:32:07;;;;;;;5.63;3.80;;;;;;;-0.10;85.68;99258.25;4887723;29;20394;-53
2023/01/28 01:34:33;;;;;;;6.13;3.63;;;;;;;-0.02;86.33;99261.31;4893609;29;20234;-56
2023/01/28 01:37:00;;;;;;;5.73;3.20;;;;;;;-0.02;85.39;99261.31;4888256;29;20227;-53
2023/01/28 01:39:26;;;;;;;4.63;3.00;;;;;;;0.01;84.96;99262.06;4897356;29;20241;-56
2023/01/28 01:41:53;;;;;;;4.43;3.30;;;;;;;-0.02;85.91;99265.63;4891550;29;20337;-57
2023/01/28 01:45:03;;;;;;;5.17;3.37;;;;;;;0.00;85.44;99266.38;4890920;29;20232;-56
2023/01/28 01:47:39;;;;;;;5.55;3.78;;;;;;;0.04;85.37;99265.31;4874598;29;20458;-56
2023/01/28 01:50:13;;;;;;;5.30;3.37;;;;;;;0.06;85.15;99260.13;4891046;29;20238;-56
2023/01/28 01:52:41;;;;;;;5.27;3.57;;;;;;;0.10;84.79;99252.22;4893739;29;20664;-56
2023/01/28 01:55:12;;;;;;;6.00;3.93;;;;;;;0.13;84.55;99258.97;4889791;29;20236;-57
2023/01/28 01:57:40;;;;;;;5.73;3.27;;;;;;;0.14;84.46;99256.31;4893903;29;20228;-55
2023/01/28 02:00:09;;;;;;;6.63;3.47;;;;;;;0.17;83.13;99245.09;4890356;29;20227;-54
2023/01/28 02:02:47;;;;;;;4.83;3.20;;;;;;;0.20;82.90;99244.09;4894677;29;20239;-55
2023/01/28 02:05:17;;;;;;;4.87;3.03;;;;;;;0.22;83.41;99247.44;4888934;29;20303;-54
2023/01/28 02:07:46;;;;;;;4.87;3.23;;;;;;;0.19;84.09;99253.56;4891646;29;20248;-54
2023/01/28 02:10:14;;;;;;;4.53;3.30;;;;;;;0.19;84.09;99245.84;4891248;29;20243;-56
2023/01/28 02:12:45;;;;;;;4.83;3.03;;;;;;;0.20;83.51;99251.81;4893920;29;20244;-54
2023/01/28 02:15:16;;;;;;;5.50;2.97;;;;;;;0.19;83.36;99247.56;4890232;29;23682;-56
2023/01/28 02:17:45;;;;;;;4.67;2.87;;;;;;;0.24;83.48;99243.06;4897194;29;20759;-54
2023/01/28 02:20:13;;;;;;;4.70;2.97;;;;;;;0.24;83.56;99250.75;4890991;29;20243;-54
2023/01/28 02:22:58;;;;;;;4.67;2.40;;;;;;;0.24;83.59;99250.75;4894814;29;20251;-56
2023/01/28 02:26:16;;;;;;;4.23;3.07;;;;;;;0.22;84.63;99248.28;4892689;29;20224;-54
2023/01/28 02:28:49;;;;;;;3.67;2.50;;;;;;;0.34;82.83;99258.91;4833762;29;20240;-56
2023/01/28 02:31:23;;;;;;;4.37;2.80;;;;;;;0.38;82.55;99258.69;4889831;29;20289;-54
2023/01/28 02:33:56;;;;;;;5.00;3.07;;;;;;;0.31;83.43;99259.03;4913352;29;20643;-53
2023/01/28 02:36:30;;;;;;;5.23;3.10;;;;;;;0.32;82.56;99265.84;4889152;29;20710;-55
2023/01/28 02:39:00;;;;;;;3.97;2.50;;;;;;;0.32;82.69;99255.56;4910395;29;20691;-54
2023/01/28 02:41:31;;;;;;;4.10;2.67;;;;;;;0.28;82.88;99268.53;4893115;29;20228;-53
2023/01/28 02:44:02;;;;;;;5.43;2.90;;;;;;;0.32;83.48;99264.09;4909215;29;20243;-56
2023/01/28 02:49:24;;;;;;;4.90;2.93;;;;;;;0.36;84.04;99264.81;4886971;29;20578;-53
2023/01/28 02:53:39;;;;;;;5.03;2.70;;;;;;;0.35;84.54;99266.53;4894688;29;20228;-54
2023/01/28 02:55:20;;;;;;;3.83;2.50;;;;;;;0.40;84.09;99267.16;4875384;29;20648;-54
2023/01/28 02:58:02;;;;;;;5.53;2.80;;;;;;;0.48;83.34;99265.97;4893593;29;20323;-54
2023/01/28 03:00:40;;;;;;;4.10;2.57;;;;;;;0.47;82.00;99261.72;4887528;29;20255;-54
2023/01/28 03:03:15;;;;;;;4.37;2.87;;;;;;;0.48;82.51;99258.25;4894510;29;20725;-52
2023/01/28 03:06:04;;;;;;;4.47;2.37;;;;;;;0.43;83.34;99266.19;4891691;29;20319;-51
2023/01/28 03:36:52;;;;;;;4.63;2.87;;;;;;;0.46;84.20;99272.91;4890012;29;22543;-55
2023/01/28 03:39:48;;;;;;;6.43;3.30;;;;;;;0.51;83.16;99276.94;4876046;29;20334;-56
2023/01/28 03:42:17;;;;;;;4.83;3.10;;;;;;;0.58;82.85;99285.19;4891572;29;21188;-54
2023/01/28 03:45:14;;;;;;;4.60;2.90;;;;;;;0.48;83.28;99277.09;4888021;29;20462;-53
2023/01/28 03:47:40;;;;;;;4.87;3.03;;;;;;;0.45;83.06;99274.66;4896984;29;20369;-53
2023/01/28 03:50:11;;;;;;;4.80;3.23;;;;;;;0.40;84.15;99279.97;4892695;29;20235;-55
2023/01/28 03:52:47;;;;;;;6.17;3.37;;;;;;;0.42;84.79;99277.38;4890418;29;20238;-54
2023/01/28 03:55:28;;;;;;;4.63;2.77;;;;;;;0.42;84.24;99285.88;4891199;29;20263;-53
2023/01/28 03:57:54;;;;;;;4.60;2.80;;;;;;;0.48;84.08;99289.06;4891349;29;20242;-53
2023/01/28 04:00:22;;;;;;;4.77;2.97;;;;;;;0.55;83.84;99293.03;4893171;29;20288;-54
2023/01/28 04:02:49;;;;;;;4.80;2.60;;;;;;;0.53;83.43;99294.84;4911251;29;20263;-55
2023/01/28 04:05:20;;;;;;;5.27;3.33;;;;;;;0.53;83.71;99293.09;4889882;29;20246;-55
2023/01/28 04:07:51;;;;;;;4.53;3.00;;;;;;;0.47;84.76;99297.69;4893102;29;20245;-53
2023/01/28 04:10:28;;;;;;;5.17;3.20;;;;;;;0.47;85.66;99295.13;4887645;29;20271;-55
2023/01/28 04:13:01;;;;;;;5.47;3.40;;;;;;;0.44;86.16;99302.06;4893996;29;20235;-52
2023/01/28 04:15:29;;;;;;;5.03;2.97;;;;;;;0.47;85.33;99292.56;4890640;29;20600;-53
2023/01/28 04:17:56;;;;;;;5.43;3.10;;;;;;;0.50;85.58;99297.53;4889609;29;20334;-52
2023/01/28 04:20:31;;;;;;;4.63;2.90;;;;;;;0.50;84.87;99295.84;4913528;29;20234;-54
2023/01/28 04:22:59;;;;;;;6.17;3.23;;;;;;;0.58;83.76;99298.84;4888499;29;20235;-52
2023/01/28 04:25:26;;;;;;;4.40;3.00;;;;;;;0.67;83.90;99294.19;4892271;29;20306;-53
2023/01/28 04:27:53;;;;;;;4.17;2.93;;;;;;;0.59;83.81;99302.28;4892276;29;20232;-53
2023/01/28 04:33:01;;;;;;;6.00;3.37;;;;;;;0.61;84.19;99307.31;4925854;23;20308;-56
2023/01/28 04:35:45;;;;;;;4.60;3.00;;;;;;;0.67;83.90;99307.88;4935028;28;20349;-55
2023/01/28 04:38:32;;;;;;;5.77;3.20;;;;;;;0.59;83.48;99305.66;4913632;29;20221;-56
2023/01/28 04:41:08;;;;;;;7.10;3.10;;;;;;;0.67;83.94;99302.75;4908278;28;20643;-53
2023/01/28 04:43:35;;;;;;;4.30;2.87;;;;;;;0.68;83.97;99306.13;4916077;28;20729;-56
2023/01/28 04:46:21;;;;;;;4.53;2.83;;;;;;;0.70;83.89;99314.59;4896452;28;20258;-57
2023/01/28 04:48:55;;;;;;;4.80;3.20;;;;;;;0.65;84.05;99308.84;4894361;29;20298;-56
2023/01/28 04:51:40;;;;;;;5.53;2.67;;;;;;;0.63;85.91;99319.22;4898625;29;20271;-55
2023/01/28 04:54:27;;;;;;;4.83;3.20;;;;;;;0.64;85.72;99312.31;4886951;29;20235;-54
2023/01/28 04:56:57;;;;;;;4.53;3.00;;;;;;;0.68;86.02;99308.69;4899494;29;20231;-54
2023/01/28 04:59:24;;;;;;;4.87;2.80;;;;;;;0.62;87.51;99316.69;4909697;29;20638;-54
2023/01/28 05:01:51;;;;;;;5.37;3.30;;;;;;;0.68;86.81;99321.56;4895929;29;20844;-54
2023/01/28 05:04:19;;;;;;;6.60;3.40;;;;;;;0.58;88.95;99316.84;4892750;29;20580;-56
2023/01/28 05:06:48;;;;;;;5.80;3.40;;;;;;;0.63;89.20;99314.06;4894425;29;20602;-57
2023/01/28 05:09:18;;;;;;;4.83;3.10;;;;;;;0.59;89.31;99315.94;4897056;29;20228;-55
2023/01/28 05:11:45;;;;;;;6.03;3.70;;;;;;;0.60;89.78;99319.34;4894136;29;20265;-54
2023/01/28 05:14:13;;;;;;;6.03;3.83;;;;;;;0.62;90.09;99317.53;4892864;29;20358;-54
2023/01/28 05:16:44;;;;;;;4.93;3.50;;;;;;;0.63;90.27;99324.34;4890779;29;20240;-56
2023/01/28 05:19:11;;;;;;;4.47;2.77;;;;;;;0.63;90.77;99324.34;4889996;29;20317;-57
2023/01/28 05:21:42;;;;;;;5.07;3.40;;;;;;;0.61;90.79;99321.00;4907980;29;20239;-55
2023/01/28 05:24:20;;;;;;;4.20;3.10;;;;;;;0.64;92.35;99320.88;4894549;29;20242;-57
2023/01/28 05:26:47;;;;;;;6.90;3.27;;;;;;;0.58;92.18;99324.53;4897371;29;20235;-55
2023/01/28 05:29:13;;;;;;;5.53;3.40;;;;;;;0.59;92.53;99333.09;4913265;28;20583;-54
2023/01/28 05:31:40;;;;;;;4.67;3.20;;;;;;;0.63;93.33;99329.47;4899865;29;20258;-55
2023/01/28 05:34:07;;;;;;;4.50;3.00;;;;;;;0.56;93.37;99323.78;4894663;29;20244;-57
2023/01/28 05:36:34;;;;;;;4.60;3.00;;;;;;;0.59;93.54;99322.81;4899610;29;20313;-53
2023/01/28 05:39:06;;;;;;;5.10;3.17;;;;;;;0.58;94.07;99324.53;4907401;29;20252;-56
2023/01/28 05:41:34;;;;;;;5.30;3.30;;;;;;;0.56;94.23;99328.09;4896495;28;20303;-55
2023/01/28 05:44:03;;;;;;;6.07;3.43;;;;;;;0.46;95.16;99320.00;4895315;28;20242;-53
2023/01/28 05:46:52;;;;;;;6.80;3.87;;;;;;;0.47;95.39;99328.50;4894590;29;20606;-54
2023/01/28 05:49:37;;;;;;;5.63;3.30;;;;;;;0.49;96.02;99330.13;4896878;28;20252;-54
2023/01/28 05:52:12;;;;;;;4.87;3.20;;;;;;;0.49;95.86;99334.41;4898243;28;20261;-57
2023/01/28 05:54:38;;;;;;;4.87;3.17;;;;;;;0.50;95.59;99334.34;4896634;29;20247;-55
2023/01/28 05:57:08;;;;;;;6.17;3.50;;;;;;;0.47;96.18;99338.78;4894754;29;20249;-53
2023/01/28 05:59:34;;;;;;;5.27;3.40;;;;;;;0.50;96.19;99336.94;4896137;29;20614;-53
2023/01/28 06:02:01;;;;;;;5.97;3.27;;;;;;;0.49;95.82;99344.69;4894014;29;20342;-53
2023/01/28 06:04:27;;;;;;;7.23;3.13;;;;;;;0.44;96.07;99348.28;4894971;29;20262;-54
2023/01/28 06:06:54;;;;;;;6.13;3.73;;;;;;;0.49;96.80;99353.25;4894969;29;20290;-54
2023/01/28 06:09:22;;;;;;;6.03;3.30;;;;;;;0.48;96.19;99351.56;4911338;28;20241;-57
2023/01/28 06:11:50;;;;;;;5.90;3.20;;;;;;;0.44;96.52;99358.56;4899835;29;20313;-53
2023/01/28 06:14:19;;;;;;;6.60;3.63;;;;;;;0.49;96.86;99358.38;4899391;29;20246;-57
2023/01/28 06:17:05;;;;;;;6.27;3.60;;;;;;;0.42;97.12;99368.09;4894412;29;20276;-56
2023/01/28 06:19:40;;;;;;;6.33;3.53;;;;;;;0.45;97.16;99372.25;4897707;28;20245;-53
2023/01/28 06:22:08;;;;;;;7.23;4.33;;;;;;;0.41;97.93;99373.31;4893444;29;20314;-56
2023/01/28 06:24:35;;;;;;;5.97;3.93;;;;;;;0.44;98.83;99383.44;4892721;29;20240;-55
2023/01/28 06:27:01;;;;;;;6.60;3.77;;;;;;;0.44;98.22;99376.56;4896040;29;20238;-56
2023/01/28 06:29:29;;;;;;;6.30;3.70;;;;;;;0.47;98.79;99375.59;4901614;29;20259;-56
2023/01/28 06:31:56;;;;;;;5.03;3.60;;;;;;;0.51;97.61;99382.25;4896750;28;20242;-53
2023/01/28 06:34:23;;;;;;;5.90;3.57;;;;;;;0.57;97.27;99386.28;4897183;28;20248;-55
2023/01/28 06:36:52;;;;;;;15.77;9.07;;;;;;;0.53;96.67;99384.75;4898946;29;20311;-54
2023/01/28 06:39:20;;;;;;;16.77;11.77;;;;;;;0.61;96.87;99392.09;4898121;28;20296;-54
2023/01/28 06:41:46;;;;;;;8.57;4.47;;;;;;;0.57;96.19;99389.66;4897150;29;20249;-53
2023/01/28 06:44:13;;;;;;;6.03;3.77;;;;;;;0.53;96.75;99395.84;4894867;29;20687;-54
2023/01/28 06:46:41;;;;;;;5.43;3.73;;;;;;;0.54;96.80;99394.94;4896101;29;20727;-55
2023/01/28 06:49:08;;;;;;;5.87;3.53;;;;;;;0.58;95.93;99395.66;4894323;28;20248;-56
2023/01/28 06:51:34;;;;;;;5.40;3.27;;;;;;;0.63;95.60;99400.56;4900178;28;20252;-54
2023/01/28 06:54:01;;;;;;;5.83;3.37;;;;;;;0.62;95.37;99402.34;4894292;28;20754;-53
2023/01/28 06:56:28;;;;;;;4.57;3.13;;;;;;;0.59;95.29;99400.72;4898836;28;20659;-54
2023/01/28 06:58:54;;;;;;;4.07;2.40;;;;;;;0.65;94.73;99403.91;4896061;28;20228;-57
2023/01/28 07:01:21;;;;;;;7.20;3.63;;;;;;;0.66;94.48;99393.59;4900165;29;20246;-53
2023/01/28 07:03:49;;;;;;;5.07;3.20;;;;;;;0.63;94.82;99391.16;4897164;29;20631;-54
2023/01/28 07:06:15;;;;;;;5.50;3.60;;;;;;;0.62;95.47;99388.63;4896598;28;20243;-54
2023/01/28 07:08:42;;;;;;;5.93;3.50;;;;;;;0.61;96.03;99399.81;4899002;28;20238;-55
2023/01/28 07:11:08;;;;;;;5.23;3.47;;;;;;;0.58;96.04;99398.22;4895830;28;20581;-55
2023/01/28 07:13:35;;;;;;;4.30;2.90;;;;;;;0.57;95.58;99396.56;4899591;28;20239;-54
2023/01/28 07:16:02;;;;;;;4.30;3.13;;;;;;;0.56;95.48;99398.28;4893287;29;20453;-56
2023/01/28 07:18:29;;;;;;;4.57;3.03;;;;;;;0.58;95.61;99399.03;4895324;29;20308;-53
2023/01/28 07:20:57;;;;;;;5.87;3.03;;;;;;;0.61;95.77;99412.66;4893327;28;20247;-56
2023/01/28 07:23:24;;;;;;;4.83;3.03;;;;;;;0.66;95.15;99409.00;4895216;29;20256;-55
2023/01/28 07:25:50;;;;;;;15.80;11.33;;;;;;;0.66;95.07;99418.44;4895674;29;21145;-53
2023/01/28 07:28:20;;;;;;;5.33;3.37;;;;;;;0.72;94.24;99415.59;4893244;29;20288;-56
2023/01/28 07:30:48;;;;;;;7.77;5.03;;;;;;;0.70;94.23;99412.25;4897263;29;20238;-54
2023/01/28 07:33:14;;;;;;;5.40;3.70;;;;;;;0.72;95.03;99421.56;4896362;28;21207;-55
2023/01/28 07:35:41;;;;;;;27.90;15.67;;;;;;;0.79;92.32;99421.31;4897120;29;20783;-56
2023/01/28 07:38:09;;;;;;;21.73;13.00;;;;;;;0.82;93.98;99429.69;4894606;29;20311;-54
2023/01/28 07:40:35;;;;;;;4.23;3.03;;;;;;;0.91;93.58;99420.75;4897073;29;20953;-56
2023/01/28 07:43:02;;;;;;;5.67;3.47;;;;;;;0.86;92.82;99417.56;4894208;28;20239;-54
2023/01/28 07:45:36;;;;;;;8.53;5.93;;;;;;;0.89;92.51;99422.56;4906455;29;20820;-55
2023/01/28 07:48:05;;;;;;;5.03;3.50;;;;;;;1.03;91.70;99420.19;4894235;28;20239;-54
2023/01/28 07:50:34;;;;;;;47.50;30.20;;;;;;;1.06;91.84;99428.69;4898527;28;20601;-56
2023/01/28 07:53:03;;;;;;;3.47;3.03;;;;;;;1.13;89.44;99430.88;4895997;28;20248;-56
2023/01/28 07:55:34;;;;;;;4.77;3.53;;;;;;;1.14;90.63;99440.25;4896650;29;20230;-54
2023/01/28 07:58:02;;;;;;;5.33;3.10;;;;;;;1.11;90.89;99435.25;4896023;29;20239;-53
2023/01/28 08:00:31;;;;;;;5.87;4.30;;;;;;;1.06;91.84;99433.81;4894365;29;20239;-55
2023/01/28 08:02:59;;;;;;;5.32;4.18;;;;;;;1.06;92.70;99446.66;4891894;29;21017;-52
2023/01/28 08:05:28;;;;;;;8.23;6.80;;;;;;;1.10;92.00;99437.88;4897136;29;20239;-52
2023/01/28 08:07:55;;;;;;;5.00;3.37;;;;;;;1.15;91.38;99447.06;4891388;29;20246;-53
2023/01/28 08:10:21;;;;;;;4.70;3.23;;;;;;;1.23;89.53;99445.88;4895400;29;20243;-53
2023/01/28 08:12:53;;;;;;;5.97;3.40;;;;;;;1.17;90.48;99450.41;4895211;28;20856;-54
2023/01/28 08:15:20;;;;;;;5.90;3.67;;;;;;;1.28;89.52;99447.31;4897082;29;20452;-53
2023/01/28 08:17:46;;;;;;;5.07;3.30;;;;;;;1.28;87.94;99449.91;4897088;29;20871;-54
2023/01/28 08:20:14;;;;;;;5.53;3.70;;;;;;;1.20;89.52;99448.59;4892255;29;20731;-55
2023/01/28 08:22:40;;;;;;;5.73;3.40;;;;;;;1.17;88.99;99455.56;4896296;29;20283;-53
2023/01/28 08:25:07;;;;;;;4.63;3.20;;;;;;;1.21;89.34;99452.84;4892669;28;20307;-55
2023/01/28 08:27:34;;;;;;;7.13;3.40;;;;;;;1.24;89.03;99450.13;4894374;29;20239;-52
2023/01/28 08:30:02;;;;;;;7.10;4.00;;;;;;;1.29;89.82;99459.28;4895084;29;20246;-55
2023/01/28 08:32:29;;;;;;;6.77;4.30;;;;;;;1.43;89.59;99468.09;4896828;29;20246;-55
2023/01/28 08:34:56;;;;;;;6.40;4.20;;;;;;;1.49;89.14;99469.56;4891250;28;20247;-51
2023/01/28 08:37:22;;;;;;;5.93;3.80;;;;;;;1.55;88.52;99466.72;4896141;29;20247;-53
2023/01/28 08:39:49;;;;;;;6.53;4.50;;;;;;;1.52;87.45;99466.84;4895831;28;21084;-52
2023/01/28 08:42:16;;;;;;;6.03;4.10;;;;;;;1.65;87.30;99462.75;4893278;28;20614;-52
2023/01/28 08:44:43;;;;;;;7.47;4.90;;;;;;;1.61;87.50;99456.94;4895966;28;20349;-52
2023/01/28 08:47:11;;;;;;;7.40;4.30;;;;;;;1.65;87.99;99464.53;4894902;29;20228;-55
2023/01/28 08:49:37;;;;;;;6.60;4.77;;;;;;;1.66;87.72;99474.72;4894262;29;20242;-52
2023/01/28 08:52:04;;;;;;;6.67;4.47;;;;;;;1.67;87.67;99475.56;4892038;29;20244;-52
2023/01/28 08:54:31;;;;;;;7.07;4.27;;;;;;;1.55;86.47;99472.66;4896313;28;20271;-52
2023/01/28 08:56:57;;;;;;;13.10;8.27;;;;;;;1.52;86.72;99483.09;4894247;28;20238;-55
2023/01/28 08:59:24;;;;;;;37.10;19.60;;;;;;;1.33;88.60;99483.97;4898195;29;20236;-54
2023/01/28 09:01:51;;;;;;;28.90;15.57;;;;;;;1.36;86.90;99482.16;4902516;29;20238;-53
2023/01/28 09:04:21;;;;;;;7.67;5.93;;;;;;;1.44;87.50;99490.34;4897104;29;20248;-54
2023/01/28 09:06:47;;;;;;;8.73;5.10;;;;;;;1.60;87.35;99483.59;4898906;28;20239;-54
2023/01/28 09:09:14;;;;;;;7.17;4.63;;;;;;;1.70;86.07;99489.13;4897677;29;20325;-53
2023/01/28 09:11:41;;;;;;;12.27;6.27;;;;;;;1.87;86.30;99490.06;4899699;29;20247;-54
2023/01/28 09:14:07;;;;;;;6.13;3.90;;;;;;;2.06;84.01;99497.75;4894680;28;20254;-55
2023/01/28 09:16:34;;;;;;;8.30;4.67;;;;;;;2.13;83.80;99491.34;4899409;29;20322;-53
2023/01/28 09:19:00;;;;;;;7.27;5.07;;;;;;;2.06;83.42;99493.41;4895850;28;20247;-52
2023/01/28 09:21:28;;;;;;;20.50;14.00;;;;;;;2.12;83.55;99496.59;4896986;29;20255;-53
2023/01/28 09:23:57;;;;;;;8.50;5.23;;;;;;;2.29;82.72;99500.91;4896269;29;20705;-54
2023/01/28 09:26:23;;;;;;;8.43;5.40;;;;;;;2.03;82.62;99503.84;4897460;29;20232;-52
2023/01/28 09:28:50;;;;;;;8.87;5.97;;;;;;;2.04;83.10;99502.94;4897267;29;20703;-53
2023/01/28 09:31:16;;;;;;;7.27;4.70;;;;;;;2.17;82.34;99498.03;4895073;28;20581;-58
2023/01/28 09:33:43;;;;;;;8.23;6.30;;;;;;;2.27;82.38;99506.13;4899201;28;20292;-52
2023/01/28 09:36:11;;;;;;;8.13;5.07;;;;;;;2.30;82.46;99500.00;4896852;29;20350;-53
2023/01/28 09:38:39;;;;;;;7.13;4.77;;;;;;;2.20;82.23;99495.28;4897325;29;20247;-53
2023/01/28 09:41:24;;;;;;;8.10;4.90;;;;;;;2.30;81.61;99513.72;4895140;29;20291;-52
2023/01/28 09:44:04;;;;;;;12.77;8.27;;;;;;;2.21;81.99;99524.47;4897711;29;20221;-53
2023/01/28 09:46:33;;;;;;;7.80;4.90;;;;;;;2.25;82.34;99514.84;4895058;29;20230;-53
2023/01/28 09:49:04;;;;;;;7.87;5.13;;;;;;;2.29;80.95;99519.78;4896177;29;20235;-53
2023/01/28 09:51:36;;;;;;;8.57;6.30;;;;;;;2.27;82.24;99520.75;4899297;29;20256;-54
2023/01/28 09:54:12;;;;;;;8.10;5.27;;;;;;;2.29;80.76;99526.66;4896810;29;20248;-54
2023/01/28 09:56:44;;;;;;;8.37;5.27;;;;;;;2.47;81.06;99525.75;4899693;29;20309;-55
2023/01/28 09:59:18;;;;;;;6.87;4.90;;;;;;;2.56;79.83;99524.47;4896105;28;20333;-53
2023/01/28 10:01:52;;;;;;;9.50;4.97;;;;;;;2.45;79.84;99525.00;4897949;29;20241;-54
2023/01/28 10:04:29;;;;;;;8.73;5.13;;;;;;;2.48;79.74;99517.09;4896289;29;20688;-54
2023/01/28 10:07:10;;;;;;;18.20;8.93;;;;;;;2.60;80.30;99513.09;4898404;29;20672;-56
2023/01/28 10:09:48;;;;;;;8.10;5.73;;;;;;;2.71;79.69;99519.41;4897863;29;20255;-52
2023/01/28 10:12:29;;;;;;;9.07;5.93;;;;;;;2.57;79.65;99517.56;4896916;28;20327;-55
2023/01/28 10:15:13;;;;;;;7.73;5.20;;;;;;;2.77;78.17;99514.81;4896967;28;20243;-55
2023/01/28 10:17:43;;;;;;;9.53;5.13;;;;;;;2.99;78.43;99518.84;4899337;29;20235;-53
2023/01/28 10:20:21;;;;;;;7.73;5.07;;;;;;;2.83;77.95;99507.66;4895150;28;20236;-54
2023/01/28 10:22:53;;;;;;;9.30;5.07;;;;;;;2.95;78.30;99505.25;4897548;29;20254;-53
2023/01/28 10:25:24;;;;;;;8.13;5.00;;;;;;;3.09;77.72;99499.41;4895892;29;20236;-54
2023/01/28 10:27:51;;;;;;;7.60;5.33;;;;;;;3.19;77.55;99498.88;4898678;28;20271;-52
2023/01/28 10:30:20;;;;;;;7.33;4.80;;;;;;;3.10;75.76;99501.06;4895307;29;20252;-55
2023/01/28 10:32:52;;;;;;;8.97;5.43;;;;;;;3.16;77.36;99496.50;4898702;29;20893;-54
2023/01/28 10:35:18;;;;;;;9.37;5.83;;;;;;;3.21;77.56;99499.63;4896372;29;20338;-54
2023/01/28 10:37:45;;;;;;;9.93;6.50;;;;;;;3.22;77.47;99499.56;4899155;29;20236;-56
2023/01/28 10:40:15;;;;;;;8.40;5.50;;;;;;;2.96;76.93;99498.38;4894858;28;20244;-55
2023/01/28 10:42:43;;;;;;;9.77;5.50;;;;;;;2.83;77.08;99497.34;4896826;28;20244;-53
2023/01/28 10:45:19;;;;;;;7.50;4.73;;;;;;;2.69;77.56;99495.47;4893911;29;20354;-53
2023/01/28 10:47:50;;;;;;;8.17;5.30;;;;;;;2.80;77.58;99494.03;4898600;28;20727;-54
2023/01/28 10:50:21;;;;;;;8.87;5.40;;;;;;;2.68;78.39;99499.81;4895873;29;20291;-53
2023/01/28 10:52:55;;;;;;;10.00;5.40;;;;;;;2.82;77.61;99517.13;4897883;29;20300;-52
2023/01/28 10:55:23;;;;;;;9.47;5.70;;;;;;;2.75;78.22;99500.31;4895789;29;20332;-53
2023/01/28 10:57:52;;;;;;;9.80;5.97;;;;;;;2.56;79.00;99503.84;4896256;29;20242;-54
2023/01/28 11:00:24;;;;;;;9.43;6.23;;;;;;;2.72;78.35;99511.63;4895473;29;20647;-55
2023/01/28 11:02:51;;;;;;;9.13;5.97;;;;;;;2.45;78.93;99512.09;4896274;29;20243;-53
2023/01/28 11:05:19;;;;;;;10.03;5.17;;;;;;;2.15;80.85;99502.41;4912474;29;20986;-55
2023/01/28 11:07:47;;;;;;;8.77;5.77;;;;;;;2.21;80.86;99507.25;4898970;28;20595;-55
2023/01/28 11:10:34;;;;;;;12.37;6.70;;;;;;;2.41;80.37;99513.16;4894957;29;20291;-56
2023/01/28 11:13:04;;;;;;;12.13;5.77;;;;;;;2.51;80.22;99510.97;4894004;29;20231;-54
2023/01/28 11:15:32;;;;;;;10.37;6.40;;;;;;;2.44;78.91;99518.19;4897924;29;20244;-56
2023/01/28 11:18:01;;;;;;;11.13;6.30;;;;;;;2.17;80.50;99507.50;4894287;29;20242;-55
2023/01/28 11:20:31;;;;;;;10.23;6.10;;;;;;;2.25;81.76;99517.41;4897275;28;20239;-53
2023/01/28 11:22:58;;;;;;;13.60;6.20;;;;;;;2.26;81.03;99516.50;4894513;28;20667;-54
2023/01/28 11:25:29;;;;;;;11.37;6.70;;;;;;;2.36;79.96;99515.16;4896821;29;20227;-54
2023/01/28 11:27:56;;;;;;;11.30;5.90;;;;;;;2.45;80.69;99509.53;4893250;29;20239;-52
2023/01/28 11:30:26;;;;;;;9.77;6.23;;;;;;;2.49;80.52;99513.63;4899329;28;20246;-52
2023/01/28 11:32:59;;;;;;;10.30;6.73;;;;;;;2.50;81.11;99515.28;4894338;29;20244;-55
2023/01/28 11:35:29;;;;;;;14.07;6.73;;;;;;;2.56;80.51;99524.47;4895670;29;20255;-54
2023/01/28 11:37:55;;;;;;;11.27;7.50;;;;;;;2.45;80.79;99516.44;4892844;29;20588;-52
2023/01/28 11:40:23;;;;;;;11.97;7.50;;;;;;;2.49;80.21;99521.34;4894666;29;20770;-55
2023/01/28 11:42:51;;;;;;;10.17;7.07;;;;;;;2.55;79.41;99524.53;4896865;29;20254;-55
2023/01/28 11:45:19;;;;;;;13.07;8.25;;;;;;;2.58;80.77;99525.22;4892298;28;20970;-55
2023/01/28 11:48:00;;;;;;;14.77;7.67;;;;;;;2.41;80.01;99518.31;4895447;29;20580;-56
2023/01/28 11:50:37;;;;;;;13.20;7.67;;;;;;;2.32;80.56;99513.63;4896613;28;20238;-54
2023/01/28 11:53:18;;;;;;;11.17;6.90;;;;;;;2.41;81.14;99512.34;4893658;28;20243;-52
2023/01/28 11:55:59;;;;;;;10.10;6.23;;;;;;;2.53;80.06;99518.63;4897300;29;20263;-54
2023/01/28 11:58:36;;;;;;;10.47;6.73;;;;;;;2.42;80.30;99524.34;4894282;29;20255;-53
2023/01/28 12:01:12;;;;;;;11.90;6.27;;;;;;;2.06;81.12;99521.72;4893620;29;20244;-53
2023/01/28 12:04:05;;;;;;;10.80;6.53;;;;;;;1.90;81.63;99513.06;4896344;29;20681;-54
2023/01/28 12:06:47;;;;;;;11.47;7.10;;;;;;;2.08;81.33;99519.09;4893712;29;20236;-53
2023/01/28 12:09:25;;;;;;;12.83;7.33;;;;;;;1.84;82.27;99521.09;4892067;29;20576;-53
2023/01/28 12:12:13;;;;;;;13.00;7.30;;;;;;;2.02;82.84;99516.81;4896346;28;20255;-55
2023/01/28 12:15:06;;;;;;;15.00;7.40;;;;;;;1.99;82.71;99528.09;4895102;29;20235;-53
2023/01/28 12:17:46;;;;;;;15.13;7.57;;;;;;;1.92;82.81;99516.41;4885975;29;20242;-52
2023/01/28 12:20:22;;;;;;;12.43;7.60;;;;;;;1.94;82.54;99513.78;4892640;28;20912;-53
2023/01/28 12:23:02;;;;;;;13.03;7.03;;;;;;;1.98;82.20;99516.13;4897496;29;20240;-53
2023/01/28 12:25:45;;;;;;;12.33;6.90;;;;;;;2.10;82.39;99524.16;4893550;29;20253;-53
2023/01/28 12:28:22;;;;;;;14.17;7.20;;;;;;;2.10;81.82;99517.28;4894101;29;20231;-55
2023/01/28 12:31:04;;;;;;;12.60;7.20;;;;;;;2.10;83.92;99511.28;4894814;29;20231;-53